sensor_id;sensor_type;location;lat;lon;timestamp;P1;durP1;ratioP1;P2;durP2;ratioP2
48727;SDS011;34527;45.618;5.130;2023-06-14T00:00:51;3.58;;;2.33;;
48727;SDS011;34527;45.618;5.130;2023-06-14T00:03:18;6.05;;;2.33;;
48727;SDS011;34527;45.618;5.130;2023-06-14T00:05:47;5.22;;;2.63;;
48727;SDS011;34527;45.618;5.130;2023-06-14T00:08:13;2.95;;;2.38;;
48727;SDS011;34527;45.618;5.130;2023-06-14T00:10:40;3.40;;;2.40;;
48727;SDS011;34527;45.618;5.130;2023-06-14T00:13:07;2.80;;;2.58;;
48727;SDS011;34527;45.618;5.130;2023-06-14T00:15:33;6.88;;;2.58;;
48727;SDS011;34527;45.618;5.130;2023-06-14T00:17:59;3.05;;;2.75;;
48727;SDS011;34527;45.618;5.130;2023-06-14T00:20:26;3.35;;;2.80;;
48727;SDS011;34527;45.618;5.130;2023-06-14T00:22:52;4.18;;;2.80;;
48727;SDS011;34527;45.618;5.130;2023-06-14T00:25:20;3.90;;;3.00;;
48727;SDS011;34527;45.618;5.130;2023-06-14T00:27:48;5.05;;;2.97;;
48727;SDS011;34527;45.618;5.130;2023-06-14T00:30:14;3.47;;;3.10;;
48727;SDS011;34527;45.618;5.130;2023-06-14T00:32:40;3.35;;;2.97;;
48727;SDS011;34527;45.618;5.130;2023-06-14T00:35:07;4.75;;;2.92;;
48727;SDS011;34527;45.618;5.130;2023-06-14T00:37:33;6.28;;;3.10;;
48727;SDS011;34527;45.618;5.130;2023-06-14T00:39:59;4.75;;;2.85;;
48727;SDS011;34527;45.618;5.130;2023-06-14T00:42:25;4.93;;;3.10;;
48727;SDS011;34527;45.618;5.130;2023-06-14T00:44:51;3.63;;;3.10;;
48727;SDS011;34527;45.618;5.130;2023-06-14T00:47:17;4.60;;;3.03;;
48727;SDS011;34527;45.618;5.130;2023-06-14T00:49:45;3.88;;;2.88;;
48727;SDS011;34527;45.618;5.130;2023-06-14T00:52:10;4.38;;;3.20;;
48727;SDS011;34527;45.618;5.130;2023-06-14T00:54:37;4.30;;;3.22;;
48727;SDS011;34527;45.618;5.130;2023-06-14T00:57:05;3.83;;;3.42;;
48727;SDS011;34527;45.618;5.130;2023-06-14T00:59:31;4.50;;;3.20;;
48727;SDS011;34527;45.618;5.130;2023-06-14T01:01:56;6.68;;;3.05;;
48727;SDS011;34527;45.618;5.130;2023-06-14T01:04:22;5.30;;;3.05;;
48727;SDS011;34527;45.618;5.130;2023-06-14T01:09:25;4.03;;;3.10;;
48727;SDS011;34527;45.618;5.130;2023-06-14T01:14:46;6.28;;;3.47;;
48727;SDS011;34527;45.618;5.130;2023-06-14T01:17:13;4.93;;;3.40;;
48727;SDS011;34527;45.618;5.130;2023-06-14T01:19:44;3.83;;;3.20;;
48727;SDS011;34527;45.618;5.130;2023-06-14T01:22:10;3.92;;;3.13;;
48727;SDS011;34527;45.618;5.130;2023-06-14T01:24:36;4.90;;;3.22;;
48727;SDS011;34527;45.618;5.130;2023-06-14T01:27:04;3.50;;;2.97;;
48727;SDS011;34527;45.618;5.130;2023-06-14T01:29:30;8.02;;;3.53;;
48727;SDS011;34527;45.618;5.130;2023-06-14T01:31:58;7.47;;;3.53;;
48727;SDS011;34527;45.618;5.130;2023-06-14T01:34:24;5.22;;;3.50;;
48727;SDS011;34527;45.618;5.130;2023-06-14T01:36:50;4.53;;;3.40;;
48727;SDS011;34527;45.618;5.130;2023-06-14T01:39:19;9.63;;;3.58;;
48727;SDS011;34527;45.618;5.130;2023-06-14T01:41:46;4.55;;;3.72;;
48727;SDS011;34527;45.618;5.130;2023-06-14T01:44:14;6.40;;;3.50;;
48727;SDS011;34527;45.618;5.130;2023-06-14T01:46:42;5.35;;;3.10;;
48727;SDS011;34527;45.618;5.130;2023-06-14T01:49:10;6.35;;;3.13;;
48727;SDS011;34527;45.618;5.130;2023-06-14T01:51:36;6.57;;;3.53;;
48727;SDS011;34527;45.618;5.130;2023-06-14T01:54:01;5.53;;;3.95;;
48727;SDS011;34527;45.618;5.130;2023-06-14T01:56:27;6.43;;;3.70;;
48727;SDS011;34527;45.618;5.130;2023-06-14T01:58:53;5.97;;;3.80;;
48727;SDS011;34527;45.618;5.130;2023-06-14T02:01:18;8.68;;;3.55;;
48727;SDS011;34527;45.618;5.130;2023-06-14T02:03:46;7.45;;;3.50;;
48727;SDS011;34527;45.618;5.130;2023-06-14T02:06:12;5.72;;;3.30;;
48727;SDS011;34527;45.618;5.130;2023-06-14T02:08:37;7.13;;;3.90;;
48727;SDS011;34527;45.618;5.130;2023-06-14T02:11:03;7.60;;;3.78;;
48727;SDS011;34527;45.618;5.130;2023-06-14T02:13:28;4.78;;;3.60;;
48727;SDS011;34527;45.618;5.130;2023-06-14T02:15:54;6.70;;;3.55;;
48727;SDS011;34527;45.618;5.130;2023-06-14T02:18:20;6.07;;;3.58;;
48727;SDS011;34527;45.618;5.130;2023-06-14T02:20:46;5.05;;;3.75;;
48727;SDS011;34527;45.618;5.130;2023-06-14T02:23:12;4.93;;;3.40;;
48727;SDS011;34527;45.618;5.130;2023-06-14T02:25:38;5.93;;;3.70;;
48727;SDS011;34527;45.618;5.130;2023-06-14T02:28:05;4.90;;;3.60;;
48727;SDS011;34527;45.618;5.130;2023-06-14T02:30:30;5.15;;;3.75;;
48727;SDS011;34527;45.618;5.130;2023-06-14T02:32:56;5.72;;;3.70;;
48727;SDS011;34527;45.618;5.130;2023-06-14T02:35:22;3.50;;;3.20;;
48727;SDS011;34527;45.618;5.130;2023-06-14T02:37:51;5.72;;;3.55;;
48727;SDS011;34527;45.618;5.130;2023-06-14T02:40:17;4.40;;;3.35;;
48727;SDS011;34527;45.618;5.130;2023-06-14T02:42:43;4.82;;;3.67;;
48727;SDS011;34527;45.618;5.130;2023-06-14T02:45:09;4.63;;;3.33;;
48727;SDS011;34527;45.618;5.130;2023-06-14T02:47:35;7.72;;;3.42;;
48727;SDS011;34527;45.618;5.130;2023-06-14T02:50:00;5.25;;;3.35;;
48727;SDS011;34527;45.618;5.130;2023-06-14T02:52:27;5.35;;;3.17;;
48727;SDS011;34527;45.618;5.130;2023-06-14T02:54:53;6.90;;;3.78;;
48727;SDS011;34527;45.618;5.130;2023-06-14T02:57:19;4.45;;;3.25;;
48727;SDS011;34527;45.618;5.130;2023-06-14T02:59:48;4.05;;;3.45;;
48727;SDS011;34527;45.618;5.130;2023-06-14T03:02:14;6.00;;;3.55;;
48727;SDS011;34527;45.618;5.130;2023-06-14T03:04:39;8.57;;;3.78;;
48727;SDS011;34527;45.618;5.130;2023-06-14T03:07:06;4.00;;;3.60;;
48727;SDS011;34527;45.618;5.130;2023-06-14T03:09:36;5.40;;;3.60;;
48727;SDS011;34527;45.618;5.130;2023-06-14T03:12:03;8.98;;;3.80;;
48727;SDS011;34527;45.618;5.130;2023-06-14T03:14:31;8.57;;;4.10;;
48727;SDS011;34527;45.618;5.130;2023-06-14T03:16:57;7.57;;;3.75;;
48727;SDS011;34527;45.618;5.130;2023-06-14T03:19:24;5.18;;;3.72;;
48727;SDS011;34527;45.618;5.130;2023-06-14T03:21:51;5.10;;;3.75;;
48727;SDS011;34527;45.618;5.130;2023-06-14T03:24:17;8.45;;;3.85;;
48727;SDS011;34527;45.618;5.130;2023-06-14T03:26:43;4.78;;;3.40;;
48727;SDS011;34527;45.618;5.130;2023-06-14T03:29:08;5.18;;;4.00;;
48727;SDS011;34527;45.618;5.130;2023-06-14T03:31:34;5.25;;;3.47;;
48727;SDS011;34527;45.618;5.130;2023-06-14T03:34:00;6.35;;;3.80;;
48727;SDS011;34527;45.618;5.130;2023-06-14T03:36:26;7.57;;;3.50;;
48727;SDS011;34527;45.618;5.130;2023-06-14T03:38:53;6.32;;;3.80;;
48727;SDS011;34527;45.618;5.130;2023-06-14T03:41:20;5.85;;;3.42;;
48727;SDS011;34527;45.618;5.130;2023-06-14T03:43:45;7.35;;;3.72;;
48727;SDS011;34527;45.618;5.130;2023-06-14T03:46:11;5.20;;;3.70;;
48727;SDS011;34527;45.618;5.130;2023-06-14T03:48:37;11.35;;;3.97;;
48727;SDS011;34527;45.618;5.130;2023-06-14T03:51:03;9.57;;;4.07;;
48727;SDS011;34527;45.618;5.130;2023-06-14T03:53:29;5.75;;;3.85;;
48727;SDS011;34527;45.618;5.130;2023-06-14T03:55:55;7.47;;;4.00;;
48727;SDS011;34527;45.618;5.130;2023-06-14T03:58:22;5.25;;;3.92;;
48727;SDS011;34527;45.618;5.130;2023-06-14T04:00:48;3.70;;;3.40;;
48727;SDS011;34527;45.618;5.130;2023-06-14T04:03:14;5.47;;;3.45;;
48727;SDS011;34527;45.618;5.130;2023-06-14T04:05:40;4.82;;;3.53;;
48727;SDS011;34527;45.618;5.130;2023-06-14T04:08:09;9.95;;;3.63;;
48727;SDS011;34527;45.618;5.130;2023-06-14T04:10:35;8.55;;;3.92;;
48727;SDS011;34527;45.618;5.130;2023-06-14T04:13:01;5.15;;;3.38;;
48727;SDS011;34527;45.618;5.130;2023-06-14T04:15:26;5.00;;;3.45;;
48727;SDS011;34527;45.618;5.130;2023-06-14T04:17:53;9.00;;;3.80;;
48727;SDS011;34527;45.618;5.130;2023-06-14T04:20:22;8.45;;;3.97;;
48727;SDS011;34527;45.618;5.130;2023-06-14T04:22:49;3.90;;;3.40;;
48727;SDS011;34527;45.618;5.130;2023-06-14T04:25:15;6.43;;;3.97;;
48727;SDS011;34527;45.618;5.130;2023-06-14T04:27:41;6.32;;;4.15;;
48727;SDS011;34527;45.618;5.130;2023-06-14T04:30:08;6.55;;;4.10;;
48727;SDS011;34527;45.618;5.130;2023-06-14T04:32:34;9.15;;;4.00;;
48727;SDS011;34527;45.618;5.130;2023-06-14T04:35:03;6.38;;;3.85;;
48727;SDS011;34527;45.618;5.130;2023-06-14T04:37:30;6.18;;;4.28;;
48727;SDS011;34527;45.618;5.130;2023-06-14T04:39:56;9.60;;;4.25;;
48727;SDS011;34527;45.618;5.130;2023-06-14T04:42:22;8.20;;;3.95;;
48727;SDS011;34527;45.618;5.130;2023-06-14T04:44:50;9.45;;;3.72;;
48727;SDS011;34527;45.618;5.130;2023-06-14T04:47:16;6.97;;;4.45;;
48727;SDS011;34527;45.618;5.130;2023-06-14T04:49:43;7.30;;;4.68;;
48727;SDS011;34527;45.618;5.130;2023-06-14T04:52:09;8.05;;;4.38;;
48727;SDS011;34527;45.618;5.130;2023-06-14T04:54:38;7.55;;;4.10;;
48727;SDS011;34527;45.618;5.130;2023-06-14T04:57:06;8.10;;;4.00;;
48727;SDS011;34527;45.618;5.130;2023-06-14T04:59:33;9.25;;;4.00;;
48727;SDS011;34527;45.618;5.130;2023-06-14T05:02:00;6.07;;;3.55;;
48727;SDS011;34527;45.618;5.130;2023-06-14T05:04:26;4.40;;;4.00;;
48727;SDS011;34527;45.618;5.130;2023-06-14T05:06:53;6.18;;;4.47;;
48727;SDS011;34527;45.618;5.130;2023-06-14T05:09:19;6.47;;;4.40;;
48727;SDS011;34527;45.618;5.130;2023-06-14T05:11:46;12.55;;;4.90;;
48727;SDS011;34527;45.618;5.130;2023-06-14T05:14:12;7.10;;;4.00;;
48727;SDS011;34527;45.618;5.130;2023-06-14T05:16:39;6.82;;;4.20;;
48727;SDS011;34527;45.618;5.130;2023-06-14T05:19:05;5.28;;;3.80;;
48727;SDS011;34527;45.618;5.130;2023-06-14T05:21:31;11.68;;;4.43;;
48727;SDS011;34527;45.618;5.130;2023-06-14T05:23:58;4.18;;;3.78;;
48727;SDS011;34527;45.618;5.130;2023-06-14T05:26:24;9.23;;;4.15;;
48727;SDS011;34527;45.618;5.130;2023-06-14T05:28:53;3.78;;;3.45;;
48727;SDS011;34527;45.618;5.130;2023-06-14T05:31:21;4.95;;;3.50;;
48727;SDS011;34527;45.618;5.130;2023-06-14T05:33:51;6.15;;;4.05;;
48727;SDS011;34527;45.618;5.130;2023-06-14T05:36:17;4.00;;;3.60;;
48727;SDS011;34527;45.618;5.130;2023-06-14T05:38:43;7.30;;;3.42;;
48727;SDS011;34527;45.618;5.130;2023-06-14T05:41:08;5.07;;;3.20;;
48727;SDS011;34527;45.618;5.130;2023-06-14T05:43:34;6.40;;;3.47;;
48727;SDS011;34527;45.618;5.130;2023-06-14T05:45:59;7.30;;;3.20;;
48727;SDS011;34527;45.618;5.130;2023-06-14T05:48:25;5.28;;;3.15;;
48727;SDS011;34527;45.618;5.130;2023-06-14T05:50:51;4.50;;;2.83;;
48727;SDS011;34527;45.618;5.130;2023-06-14T05:53:16;4.85;;;2.88;;
48727;SDS011;34527;45.618;5.130;2023-06-14T05:55:42;5.15;;;2.92;;
48727;SDS011;34527;45.618;5.130;2023-06-14T05:58:08;4.45;;;2.90;;
48727;SDS011;34527;45.618;5.130;2023-06-14T06:00:33;3.47;;;2.75;;
48727;SDS011;34527;45.618;5.130;2023-06-14T06:02:59;4.13;;;2.65;;
48727;SDS011;34527;45.618;5.130;2023-06-14T06:05:25;7.38;;;2.70;;
48727;SDS011;34527;45.618;5.130;2023-06-14T06:07:51;7.13;;;2.47;;
48727;SDS011;34527;45.618;5.130;2023-06-14T06:10:17;7.78;;;2.88;;
48727;SDS011;34527;45.618;5.130;2023-06-14T06:12:42;3.03;;;2.72;;
48727;SDS011;34527;45.618;5.130;2023-06-14T06:15:08;3.78;;;2.83;;
48727;SDS011;34527;45.618;5.130;2023-06-14T06:17:37;2.55;;;2.28;;
48727;SDS011;34527;45.618;5.130;2023-06-14T06:20:03;4.93;;;2.60;;
48727;SDS011;34527;45.618;5.130;2023-06-14T06:22:31;4.20;;;2.75;;
48727;SDS011;34527;45.618;5.130;2023-06-14T06:24:56;3.67;;;2.30;;
48727;SDS011;34527;45.618;5.130;2023-06-14T06:27:22;4.00;;;2.97;;
48727;SDS011;34527;45.618;5.130;2023-06-14T06:29:48;2.75;;;2.55;;
48727;SDS011;34527;45.618;5.130;2023-06-14T06:32:14;2.60;;;2.40;;
48727;SDS011;34527;45.618;5.130;2023-06-14T06:34:40;3.95;;;2.63;;
48727;SDS011;34527;45.618;5.130;2023-06-14T06:37:06;3.55;;;2.38;;
48727;SDS011;34527;45.618;5.130;2023-06-14T06:39:32;5.30;;;2.65;;
48727;SDS011;34527;45.618;5.130;2023-06-14T06:41:58;4.45;;;2.70;;
48727;SDS011;34527;45.618;5.130;2023-06-14T06:44:23;5.90;;;3.13;;
48727;SDS011;34527;45.618;5.130;2023-06-14T06:46:49;3.55;;;2.88;;
48727;SDS011;34527;45.618;5.130;2023-06-14T06:49:15;4.47;;;2.97;;
48727;SDS011;34527;45.618;5.130;2023-06-14T06:51:41;3.75;;;2.95;;
48727;SDS011;34527;45.618;5.130;2023-06-14T06:54:07;4.55;;;3.20;;
48727;SDS011;34527;45.618;5.130;2023-06-14T06:56:34;4.43;;;3.20;;
48727;SDS011;34527;45.618;5.130;2023-06-14T06:59:00;4.57;;;3.00;;
48727;SDS011;34527;45.618;5.130;2023-06-14T07:01:25;4.72;;;3.22;;
48727;SDS011;34527;45.618;5.130;2023-06-14T07:03:54;4.40;;;3.08;;
48727;SDS011;34527;45.618;5.130;2023-06-14T07:06:20;7.25;;;3.50;;
48727;SDS011;34527;45.618;5.130;2023-06-14T07:08:46;5.00;;;3.10;;
48727;SDS011;34527;45.618;5.130;2023-06-14T07:11:13;4.85;;;3.65;;
48727;SDS011;34527;45.618;5.130;2023-06-14T07:13:39;4.25;;;3.40;;
48727;SDS011;34527;45.618;5.130;2023-06-14T07:16:05;8.82;;;4.53;;
48727;SDS011;34527;45.618;5.130;2023-06-14T07:18:31;3.58;;;3.28;;
48727;SDS011;34527;45.618;5.130;2023-06-14T07:20:56;4.22;;;3.35;;
48727;SDS011;34527;45.618;5.130;2023-06-14T07:23:23;4.10;;;3.33;;
48727;SDS011;34527;45.618;5.130;2023-06-14T07:25:48;6.45;;;3.45;;
48727;SDS011;34527;45.618;5.130;2023-06-14T07:28:14;3.75;;;3.45;;
48727;SDS011;34527;45.618;5.130;2023-06-14T07:30:41;4.32;;;3.92;;
48727;SDS011;34527;45.618;5.130;2023-06-14T07:33:06;3.88;;;3.47;;
48727;SDS011;34527;45.618;5.130;2023-06-14T07:35:33;4.22;;;3.83;;
48727;SDS011;34527;45.618;5.130;2023-06-14T07:37:59;6.43;;;3.80;;
48727;SDS011;34527;45.618;5.130;2023-06-14T07:40:24;3.85;;;3.55;;
48727;SDS011;34527;45.618;5.130;2023-06-14T07:42:50;3.90;;;3.30;;
48727;SDS011;34527;45.618;5.130;2023-06-14T07:45:16;4.07;;;3.67;;
48727;SDS011;34527;45.618;5.130;2023-06-14T07:47:41;4.97;;;3.40;;
48727;SDS011;34527;45.618;5.130;2023-06-14T07:50:07;4.15;;;3.58;;
48727;SDS011;34527;45.618;5.130;2023-06-14T07:52:33;5.30;;;4.13;;
48727;SDS011;34527;45.618;5.130;2023-06-14T07:54:59;4.13;;;3.72;;
48727;SDS011;34527;45.618;5.130;2023-06-14T07:57:25;5.07;;;4.10;;
48727;SDS011;34527;45.618;5.130;2023-06-14T07:59:51;4.15;;;3.50;;
48727;SDS011;34527;45.618;5.130;2023-06-14T08:02:17;4.40;;;3.63;;
48727;SDS011;34527;45.618;5.130;2023-06-14T08:04:43;7.75;;;3.80;;
48727;SDS011;34527;45.618;5.130;2023-06-14T08:07:08;3.80;;;3.50;;
48727;SDS011;34527;45.618;5.130;2023-06-14T08:09:34;6.40;;;4.10;;
48727;SDS011;34527;45.618;5.130;2023-06-14T08:12:03;4.45;;;3.85;;
48727;SDS011;34527;45.618;5.130;2023-06-14T08:14:34;4.05;;;3.65;;
48727;SDS011;34527;45.618;5.130;2023-06-14T08:17:00;5.00;;;3.55;;
48727;SDS011;34527;45.618;5.130;2023-06-14T08:19:25;5.00;;;3.60;;
48727;SDS011;34527;45.618;5.130;2023-06-14T08:21:51;5.20;;;3.38;;
48727;SDS011;34527;45.618;5.130;2023-06-14T08:24:20;3.83;;;3.38;;
48727;SDS011;34527;45.618;5.130;2023-06-14T08:26:49;4.10;;;3.42;;
48727;SDS011;34527;45.618;5.130;2023-06-14T08:29:15;3.97;;;3.55;;
48727;SDS011;34527;45.618;5.130;2023-06-14T08:31:40;6.63;;;2.92;;
48727;SDS011;34527;45.618;5.130;2023-06-14T08:34:06;6.57;;;3.03;;
48727;SDS011;34527;45.618;5.130;2023-06-14T08:36:32;4.78;;;3.13;;
48727;SDS011;34527;45.618;5.130;2023-06-14T08:38:57;5.18;;;3.58;;
48727;SDS011;34527;45.618;5.130;2023-06-14T08:41:23;3.63;;;3.33;;
48727;SDS011;34527;45.618;5.130;2023-06-14T08:43:52;4.47;;;3.03;;
48727;SDS011;34527;45.618;5.130;2023-06-14T08:46:18;3.72;;;3.30;;
48727;SDS011;34527;45.618;5.130;2023-06-14T08:48:49;6.32;;;3.80;;
48727;SDS011;34527;45.618;5.130;2023-06-14T08:51:16;4.97;;;3.85;;
48727;SDS011;34527;45.618;5.130;2023-06-14T08:53:44;5.40;;;3.40;;
48727;SDS011;34527;45.618;5.130;2023-06-14T08:56:11;4.90;;;3.60;;
48727;SDS011;34527;45.618;5.130;2023-06-14T08:58:40;3.88;;;3.58;;
48727;SDS011;34527;45.618;5.130;2023-06-14T09:01:09;4.43;;;3.50;;
48727;SDS011;34527;45.618;5.130;2023-06-14T09:03:39;3.88;;;3.58;;
48727;SDS011;34527;45.618;5.130;2023-06-14T09:06:06;5.95;;;3.88;;
48727;SDS011;34527;45.618;5.130;2023-06-14T09:08:34;7.75;;;3.65;;
48727;SDS011;34527;45.618;5.130;2023-06-14T09:11:01;6.28;;;5.13;;
48727;SDS011;34527;45.618;5.130;2023-06-14T09:13:27;6.78;;;5.65;;
48727;SDS011;34527;45.618;5.130;2023-06-14T09:15:52;5.38;;;4.35;;
48727;SDS011;34527;45.618;5.130;2023-06-14T09:18:19;6.82;;;3.80;;
48727;SDS011;34527;45.618;5.130;2023-06-14T09:20:46;5.00;;;3.40;;
48727;SDS011;34527;45.618;5.130;2023-06-14T09:23:13;5.00;;;3.38;;
48727;SDS011;34527;45.618;5.130;2023-06-14T09:25:45;4.28;;;3.88;;
48727;SDS011;34527;45.618;5.130;2023-06-14T09:28:11;4.13;;;3.67;;
48727;SDS011;34527;45.618;5.130;2023-06-14T09:30:37;4.45;;;3.60;;
48727;SDS011;34527;45.618;5.130;2023-06-14T09:33:03;5.88;;;3.53;;
48727;SDS011;34527;45.618;5.130;2023-06-14T09:35:30;4.13;;;3.72;;
48727;SDS011;34527;45.618;5.130;2023-06-14T09:37:57;6.70;;;4.80;;
48727;SDS011;34527;45.618;5.130;2023-06-14T09:40:23;5.70;;;4.25;;
48727;SDS011;34527;45.618;5.130;2023-06-14T09:42:49;4.75;;;4.35;;
48727;SDS011;34527;45.618;5.130;2023-06-14T09:45:16;4.80;;;4.32;;
48727;SDS011;34527;45.618;5.130;2023-06-14T09:47:47;5.43;;;4.80;;
48727;SDS011;34527;45.618;5.130;2023-06-14T09:50:14;5.60;;;5.07;;
48727;SDS011;34527;45.618;5.130;2023-06-14T09:52:40;7.30;;;5.18;;
48727;SDS011;34527;45.618;5.130;2023-06-14T09:55:11;5.57;;;5.05;;
48727;SDS011;34527;45.618;5.130;2023-06-14T09:57:38;5.70;;;4.82;;
48727;SDS011;34527;45.618;5.130;2023-06-14T10:00:07;5.88;;;4.88;;
48727;SDS011;34527;45.618;5.130;2023-06-14T10:02:36;4.90;;;4.47;;
48727;SDS011;34527;45.618;5.130;2023-06-14T10:07:32;4.78;;;4.38;;
48727;SDS011;34527;45.618;5.130;2023-06-14T10:10:05;5.43;;;4.82;;
48727;SDS011;34527;45.618;5.130;2023-06-14T10:12:33;5.85;;;5.05;;
48727;SDS011;34527;45.618;5.130;2023-06-14T10:14:58;8.05;;;4.65;;
48727;SDS011;34527;45.618;5.130;2023-06-14T10:17:27;5.00;;;4.35;;
48727;SDS011;34527;45.618;5.130;2023-06-14T10:20:07;6.75;;;4.80;;
48727;SDS011;34527;45.618;5.130;2023-06-14T10:22:44;6.22;;;4.25;;
48727;SDS011;34527;45.618;5.130;2023-06-14T10:25:31;5.63;;;5.13;;
48727;SDS011;34527;45.618;5.130;2023-06-14T10:28:05;4.80;;;4.30;;
48727;SDS011;34527;45.618;5.130;2023-06-14T10:31:01;4.63;;;4.22;;
48727;SDS011;34527;45.618;5.130;2023-06-14T10:33:28;5.95;;;5.03;;
48727;SDS011;34527;45.618;5.130;2023-06-14T10:39:08;4.90;;;4.50;;
48727;SDS011;34527;45.618;5.130;2023-06-14T10:41:42;4.88;;;4.45;;
48727;SDS011;34527;45.618;5.130;2023-06-14T10:46:46;7.57;;;3.80;;
48727;SDS011;34527;45.618;5.130;2023-06-14T10:49:16;5.72;;;4.47;;
48727;SDS011;34527;45.618;5.130;2023-06-14T10:51:51;4.90;;;4.10;;
48727;SDS011;34527;45.618;5.130;2023-06-14T10:54:21;6.30;;;4.05;;
48727;SDS011;34527;45.618;5.130;2023-06-14T10:56:51;4.00;;;3.50;;
48727;SDS011;34527;45.618;5.130;2023-06-14T10:59:18;5.22;;;4.22;;
48727;SDS011;34527;45.618;5.130;2023-06-14T11:04:58;7.70;;;4.20;;
48727;SDS011;34527;45.618;5.130;2023-06-14T11:10:19;4.30;;;3.90;;
48727;SDS011;34527;45.618;5.130;2023-06-14T11:13:01;4.32;;;3.72;;
48727;SDS011;34527;45.618;5.130;2023-06-14T11:15:31;6.03;;;4.10;;
48727;SDS011;34527;45.618;5.130;2023-06-14T11:17:58;5.40;;;4.13;;
48727;SDS011;34527;45.618;5.130;2023-06-14T11:20:26;5.03;;;4.10;;
48727;SDS011;34527;45.618;5.130;2023-06-14T11:22:53;3.88;;;3.55;;
48727;SDS011;34527;45.618;5.130;2023-06-14T11:25:19;4.65;;;4.00;;
48727;SDS011;34527;45.618;5.130;2023-06-14T11:27:45;4.18;;;3.88;;
48727;SDS011;34527;45.618;5.130;2023-06-14T11:30:11;4.03;;;3.60;;
48727;SDS011;34527;45.618;5.130;2023-06-14T11:32:38;4.68;;;4.03;;
48727;SDS011;34527;45.618;5.130;2023-06-14T11:35:04;4.93;;;4.00;;
48727;SDS011;34527;45.618;5.130;2023-06-14T11:37:30;6.13;;;4.15;;
48727;SDS011;34527;45.618;5.130;2023-06-14T11:39:59;4.85;;;3.70;;
48727;SDS011;34527;45.618;5.130;2023-06-14T11:42:29;4.22;;;3.83;;
48727;SDS011;34527;45.618;5.130;2023-06-14T11:44:55;4.22;;;3.83;;
48727;SDS011;34527;45.618;5.130;2023-06-14T11:47:21;6.00;;;4.05;;
48727;SDS011;34527;45.618;5.130;2023-06-14T11:49:47;4.78;;;4.03;;
48727;SDS011;34527;45.618;5.130;2023-06-14T11:52:13;4.78;;;3.83;;
48727;SDS011;34527;45.618;5.130;2023-06-14T11:54:39;4.95;;;4.00;;
48727;SDS011;34527;45.618;5.130;2023-06-14T11:57:06;4.57;;;4.18;;
48727;SDS011;34527;45.618;5.130;2023-06-14T11:59:37;5.22;;;3.80;;
48727;SDS011;34527;45.618;5.130;2023-06-14T12:02:05;6.18;;;4.63;;
48727;SDS011;34527;45.618;5.130;2023-06-14T12:04:32;6.30;;;3.97;;
48727;SDS011;34527;45.618;5.130;2023-06-14T12:07:08;5.75;;;4.30;;
48727;SDS011;34527;45.618;5.130;2023-06-14T12:09:40;4.72;;;4.22;;
48727;SDS011;34527;45.618;5.130;2023-06-14T12:12:09;6.75;;;4.20;;
48727;SDS011;34527;45.618;5.130;2023-06-14T12:14:35;4.65;;;4.22;;
48727;SDS011;34527;45.618;5.130;2023-06-14T12:17:05;4.63;;;4.22;;
48727;SDS011;34527;45.618;5.130;2023-06-14T12:19:43;6.80;;;4.30;;
48727;SDS011;34527;45.618;5.130;2023-06-14T12:22:10;5.60;;;4.20;;
48727;SDS011;34527;45.618;5.130;2023-06-14T12:24:36;4.68;;;4.03;;
48727;SDS011;34527;45.618;5.130;2023-06-14T12:27:03;6.05;;;4.57;;
48727;SDS011;34527;45.618;5.130;2023-06-14T12:29:29;7.28;;;4.85;;
48727;SDS011;34527;45.618;5.130;2023-06-14T12:31:56;4.72;;;4.25;;
48727;SDS011;34527;45.618;5.130;2023-06-14T12:34:24;4.43;;;4.03;;
48727;SDS011;34527;45.618;5.130;2023-06-14T12:36:51;6.35;;;5.40;;
48727;SDS011;34527;45.618;5.130;2023-06-14T12:39:20;4.80;;;4.22;;
48727;SDS011;34527;45.618;5.130;2023-06-14T12:41:46;4.68;;;4.28;;
48727;SDS011;34527;45.618;5.130;2023-06-14T12:44:14;5.15;;;4.20;;
48727;SDS011;34527;45.618;5.130;2023-06-14T12:46:40;4.18;;;3.78;;
48727;SDS011;34527;45.618;5.130;2023-06-14T12:49:08;7.63;;;4.30;;
48727;SDS011;34527;45.618;5.130;2023-06-14T12:51:37;5.65;;;4.15;;
48727;SDS011;34527;45.618;5.130;2023-06-14T12:54:03;4.15;;;3.85;;
48727;SDS011;34527;45.618;5.130;2023-06-14T12:56:29;6.15;;;4.22;;
48727;SDS011;34527;45.618;5.130;2023-06-14T12:58:55;4.78;;;4.30;;
48727;SDS011;34527;45.618;5.130;2023-06-14T13:01:21;7.75;;;4.30;;
48727;SDS011;34527;45.618;5.130;2023-06-14T13:03:46;5.28;;;4.35;;
48727;SDS011;34527;45.618;5.130;2023-06-14T13:06:12;5.15;;;4.55;;
48727;SDS011;34527;45.618;5.130;2023-06-14T13:08:38;7.07;;;4.90;;
48727;SDS011;34527;45.618;5.130;2023-06-14T13:11:04;5.95;;;4.20;;
48727;SDS011;34527;45.618;5.130;2023-06-14T13:13:30;6.72;;;5.78;;
48727;SDS011;34527;45.618;5.130;2023-06-14T13:15:55;5.53;;;4.45;;
48727;SDS011;34527;45.618;5.130;2023-06-14T13:18:21;7.50;;;4.80;;
48727;SDS011;34527;45.618;5.130;2023-06-14T13:20:47;6.80;;;5.80;;
48727;SDS011;34527;45.618;5.130;2023-06-14T13:23:12;5.88;;;5.20;;
48727;SDS011;34527;45.618;5.130;2023-06-14T13:25:38;5.05;;;4.55;;
48727;SDS011;34527;45.618;5.130;2023-06-14T13:28:04;7.93;;;4.57;;
48727;SDS011;34527;45.618;5.130;2023-06-14T13:30:30;5.78;;;4.32;;
48727;SDS011;34527;45.618;5.130;2023-06-14T13:32:57;4.88;;;4.10;;
48727;SDS011;34527;45.618;5.130;2023-06-14T13:35:23;6.22;;;4.20;;
48727;SDS011;34527;45.618;5.130;2023-06-14T13:37:49;5.20;;;4.68;;
48727;SDS011;34527;45.618;5.130;2023-06-14T13:40:15;5.20;;;4.35;;
48727;SDS011;34527;45.618;5.130;2023-06-14T13:42:41;6.65;;;3.90;;
48727;SDS011;34527;45.618;5.130;2023-06-14T13:45:07;7.30;;;4.00;;
48727;SDS011;34527;45.618;5.130;2023-06-14T13:47:36;7.35;;;5.40;;
48727;SDS011;34527;45.618;5.130;2023-06-14T13:50:02;5.18;;;3.92;;
48727;SDS011;34527;45.618;5.130;2023-06-14T13:52:29;8.65;;;4.65;;
48727;SDS011;34527;45.618;5.130;2023-06-14T13:54:54;4.78;;;4.38;;
48727;SDS011;34527;45.618;5.130;2023-06-14T13:57:20;9.10;;;4.85;;
48727;SDS011;34527;45.618;5.130;2023-06-14T13:59:46;5.05;;;4.30;;
48727;SDS011;34527;45.618;5.130;2023-06-14T14:02:11;6.45;;;4.60;;
48727;SDS011;34527;45.618;5.130;2023-06-14T14:04:38;7.63;;;4.50;;
48727;SDS011;34527;45.618;5.130;2023-06-14T14:07:04;5.68;;;4.45;;
48727;SDS011;34527;45.618;5.130;2023-06-14T14:09:31;5.43;;;4.70;;
48727;SDS011;34527;45.618;5.130;2023-06-14T14:11:58;5.00;;;4.50;;
48727;SDS011;34527;45.618;5.130;2023-06-14T14:14:24;5.53;;;4.20;;
48727;SDS011;34527;45.618;5.130;2023-06-14T14:16:50;7.30;;;4.55;;
48727;SDS011;34527;45.618;5.130;2023-06-14T14:19:20;5.78;;;4.35;;
48727;SDS011;34527;45.618;5.130;2023-06-14T14:21:49;6.72;;;4.18;;
48727;SDS011;34527;45.618;5.130;2023-06-14T14:24:14;6.22;;;4.00;;
48727;SDS011;34527;45.618;5.130;2023-06-14T14:26:41;7.63;;;4.05;;
48727;SDS011;34527;45.618;5.130;2023-06-14T14:29:07;5.38;;;4.68;;
48727;SDS011;34527;45.618;5.130;2023-06-14T14:31:33;10.60;;;4.20;;
48727;SDS011;34527;45.618;5.130;2023-06-14T14:33:59;7.38;;;4.47;;
48727;SDS011;34527;45.618;5.130;2023-06-14T14:36:24;6.68;;;3.80;;
48727;SDS011;34527;45.618;5.130;2023-06-14T14:38:50;6.20;;;3.92;;
48727;SDS011;34527;45.618;5.130;2023-06-14T14:41:16;4.78;;;3.50;;
48727;SDS011;34527;45.618;5.130;2023-06-14T14:43:42;5.68;;;3.58;;
48727;SDS011;34527;45.618;5.130;2023-06-14T14:46:08;3.95;;;3.33;;
48727;SDS011;34527;45.618;5.130;2023-06-14T14:48:33;3.90;;;3.50;;
48727;SDS011;34527;45.618;5.130;2023-06-14T14:50:59;3.88;;;3.33;;
48727;SDS011;34527;45.618;5.130;2023-06-14T14:53:24;5.32;;;3.47;;
48727;SDS011;34527;45.618;5.130;2023-06-14T14:55:50;5.10;;;3.22;;
48727;SDS011;34527;45.618;5.130;2023-06-14T14:58:16;6.95;;;3.40;;
48727;SDS011;34527;45.618;5.130;2023-06-14T15:00:45;6.32;;;3.60;;
48727;SDS011;34527;45.618;5.130;2023-06-14T15:03:11;3.83;;;3.40;;
48727;SDS011;34527;45.618;5.130;2023-06-14T15:05:36;3.63;;;3.05;;